createdAt,value
2016-12-26T00:00:05.388Z,37.8
2016-12-26T00:02:05.098Z,37.8
2016-12-26T00:04:05.885Z,37.8
2016-12-26T00:06:05.636Z,37.8
2016-12-26T00:08:10.745Z,37.8
2016-12-26T00:10:05.171Z,37.8
2016-12-26T00:12:05.895Z,37.8
2016-12-26T00:14:06.031Z,37.8
2016-12-26T00:16:05.750Z,37.8
2016-12-26T00:18:08.191Z,37.8
2016-12-26T00:20:05.921Z,37.8
2016-12-26T00:22:05.651Z,37.8
2016-12-26T00:24:05.802Z,37.8
2016-12-26T00:26:10.582Z,37.8
2016-12-26T00:28:05.319Z,37.8
2016-12-26T00:30:05.037Z,37.8
2016-12-26T00:32:06.086Z,37.8
2016-12-26T00:34:06.015Z,37.7
2016-12-26T00:36:05.741Z,37.8
2016-12-26T00:38:10.564Z,37.8
2016-12-26T00:40:08.274Z,37.8
2016-12-26T00:42:06.047Z,37.8
2016-12-26T00:44:05.908Z,37.8
2016-12-26T00:46:05.634Z,37.8
2016-12-26T00:48:05.347Z,37.7
2016-12-26T00:50:07.760Z,37.7
2016-12-26T00:52:10.601Z,37.5
2016-12-26T00:54:05.334Z,37.7
2016-12-26T00:56:07.999Z,37.8
2016-12-26T00:58:13.377Z,37.7
2016-12-26T01:00:05.140Z,37.5
2016-12-26T01:02:05.551Z,37.7
2016-12-26T01:04:05.278Z,37.5
2016-12-26T01:06:06.017Z,37.7
2016-12-26T01:08:08.385Z,37.5
2016-12-26T01:10:05.116Z,37.5
2016-12-26T01:12:07.951Z,37.4
2016-12-26T01:14:05.675Z,37.4
2016-12-26T01:16:05.363Z,37.4
2016-12-26T01:18:05.266Z,37.5
2016-12-26T01:20:09.016Z,37.4
2016-12-26T01:22:05.747Z,37.4
2016-12-26T01:24:05.473Z,37.5
2016-12-26T01:26:05.551Z,37.4
2016-12-26T01:28:05.445Z,37.4
2016-12-26T01:30:05.204Z,37.5
2016-12-26T01:32:06.332Z,37.5
2016-12-26T01:34:05.108Z,37.4
2016-12-26T01:36:05.340Z,37.4
2016-12-26T01:38:07.781Z,37.5
2016-12-26T01:40:08.009Z,37.2
2016-12-26T01:42:05.742Z,37.4
2016-12-26T01:44:05.784Z,37.4
2016-12-26T01:46:05.537Z,37.4
2016-12-26T01:48:07.815Z,37.2
2016-12-26T01:50:08.406Z,37.2
2016-12-26T01:52:10.129Z,37.2
2016-12-26T01:54:05.880Z,37.2
2016-12-26T01:56:05.620Z,37.4
2016-12-26T01:58:05.327Z,37.4
2016-12-26T02:00:12.787Z,37.4
2016-12-26T02:02:05.865Z,37.2
2016-12-26T02:04:05.610Z,37.4
2016-12-26T02:06:05.315Z,37.1
2016-12-26T02:08:07.893Z,37.1
2016-12-26T02:10:08.063Z,37.1
2016-12-26T02:12:08.293Z,37.1
2016-12-26T02:14:06.326Z,37.1
2016-12-26T02:16:05.050Z,37.2
2016-12-26T02:18:05.956Z,37.1
2016-12-26T02:20:05.812Z,37.1
2016-12-26T02:22:05.539Z,37.1
2016-12-26T02:24:05.257Z,37.2
2016-12-26T02:26:08.677Z,37.1
2016-12-26T02:28:05.473Z,37.1
2016-12-26T02:30:05.194Z,37.1
2016-12-26T02:32:09.242Z,37.1
2016-12-26T02:34:05.956Z,37.1
2016-12-26T02:36:10.243Z,37.2
2016-12-26T02:38:06.293Z,37.1
2016-12-26T02:40:06.021Z,37.2
2016-12-26T02:42:05.263Z,37.1
2016-12-26T02:44:08.530Z,37.1
2016-12-26T02:46:05.243Z,36.9
2016-12-26T02:48:06.323Z,37.1
2016-12-26T02:50:06.339Z,36.9
2016-12-26T02:52:05.589Z,36.9
2016-12-26T02:54:10.366Z,37.1
2016-12-26T02:56:05.088Z,36.9
2016-12-26T02:58:05.797Z,37.1
2016-12-26T03:00:13.062Z,37.1
2016-12-26T03:02:05.770Z,37.1
2016-12-26T03:04:06.345Z,36.9
2016-12-26T03:06:07.589Z,37.1
2016-12-26T03:08:05.645Z,36.9
2016-12-26T03:10:08.395Z,36.9
2016-12-26T03:12:05.166Z,36.9
2016-12-26T03:14:06.081Z,36.9
2016-12-26T03:16:05.770Z,36.9
2016-12-26T03:18:05.659Z,37.2
2016-12-26T03:20:05.500Z,33.9
2016-12-26T03:22:05.243Z,36.9
2016-12-26T03:24:08.448Z,36.9
2016-12-26T03:26:05.501Z,36.9
2016-12-26T03:28:05.180Z,36.9
2016-12-26T03:30:05.891Z,36.9
2016-12-26T03:32:05.929Z,36.9
2016-12-26T03:34:05.581Z,36.9
2016-12-26T03:36:05.296Z,36.9
2016-12-26T03:38:10.761Z,36.9
2016-12-26T03:40:05.450Z,36.9
2016-12-26T03:42:05.158Z,36.9
2016-12-26T03:44:08.381Z,36.9
2016-12-26T03:46:05.112Z,36.9
2016-12-26T03:48:05.806Z,37
2016-12-26T03:50:08.041Z,36.9
2016-12-26T03:52:05.294Z,36.9
2016-12-26T03:54:08.094Z,37
2016-12-26T03:56:06.144Z,37
2016-12-26T03:58:05.350Z,36.9
2016-12-26T04:00:10.176Z,36.9
2016-12-26T04:02:05.643Z,36.9
2016-12-26T04:04:07.909Z,37
2016-12-26T04:06:05.613Z,37
2016-12-26T04:08:05.686Z,36.9
2016-12-26T04:10:05.978Z,37
2016-12-26T04:12:08.228Z,37
2016-12-26T04:14:06.143Z,36.9
2016-12-26T04:16:08.389Z,37
2016-12-26T04:18:05.339Z,37
2016-12-26T04:20:05.361Z,37
2016-12-26T04:22:07.609Z,37
2016-12-26T04:24:07.936Z,37
2016-12-26T04:26:05.650Z,37
2016-12-26T04:28:05.361Z,37
2016-12-26T04:30:05.019Z,37
2016-12-26T04:32:10.748Z,37.1
2016-12-26T04:34:05.446Z,37
2016-12-26T04:36:05.186Z,37.2
2016-12-26T04:38:06.207Z,37.2
2016-12-26T04:40:05.910Z,37
2016-12-26T04:42:05.135Z,37.2
2016-12-26T04:44:05.916Z,37.2
2016-12-26T04:46:05.187Z,37.2
2016-12-26T04:48:05.896Z,37.2
2016-12-26T04:50:05.766Z,37.2
2016-12-26T04:52:05.990Z,37.2
2016-12-26T04:54:05.688Z,37.2
2016-12-26T04:56:06.132Z,37.2
2016-12-26T04:58:07.879Z,37.2
2016-12-26T05:00:05.608Z,37.2
2016-12-26T05:02:05.706Z,37.2
2016-12-26T05:04:05.402Z,37.2
2016-12-26T05:06:05.081Z,37.2
2016-12-26T05:08:08.446Z,37.2
2016-12-26T05:10:07.670Z,37.2
2016-12-26T05:12:05.381Z,37.2
2016-12-26T05:14:05.512Z,37.2
2016-12-26T05:16:05.714Z,37.2
2016-12-26T05:18:08.152Z,37.2
2016-12-26T05:20:05.974Z,37.2
2016-12-26T05:22:08.289Z,37.2
2016-12-26T05:24:05.557Z,37.2
2016-12-26T05:26:10.766Z,37.2
2016-12-26T05:28:05.647Z,37.2
2016-12-26T05:30:05.427Z,37.2
2016-12-26T05:32:05.487Z,37.2
2016-12-26T05:34:05.139Z,37.2
2016-12-26T05:36:05.917Z,37.2
2016-12-26T05:38:05.668Z,37.2
2016-12-26T05:40:05.394Z,37.2
2016-12-26T05:42:05.133Z,37.3
2016-12-26T05:44:06.003Z,37.2
2016-12-26T05:46:07.808Z,37.2
2016-12-26T05:48:05.472Z,37.2
2016-12-26T05:50:05.134Z,37.2
2016-12-26T05:52:05.832Z,37.2
2016-12-26T05:54:05.149Z,37.2
2016-12-26T05:56:06.166Z,37.2
2016-12-26T05:58:05.871Z,37.2
2016-12-26T06:00:05.445Z,37.2
2016-12-26T06:02:07.666Z,37.2
2016-12-26T06:04:07.892Z,37.2
2016-12-26T06:06:05.143Z,37.2
2016-12-26T06:08:05.973Z,37.2
2016-12-26T06:10:05.708Z,37.2
2016-12-26T06:12:10.532Z,37.2
2016-12-26T06:14:05.459Z,37.2
2016-12-26T06:16:08.102Z,37.3
2016-12-26T06:18:05.973Z,37.2
2016-12-26T06:20:08.335Z,37.2
2016-12-26T06:22:05.062Z,37.2
2016-12-26T06:24:10.841Z,37.2
2016-12-26T06:26:05.204Z,37.2
2016-12-26T06:28:05.972Z,37.2
2016-12-26T06:30:05.693Z,37.2
2016-12-26T06:32:05.421Z,37.2
2016-12-26T06:34:07.620Z,37.3
2016-12-26T06:36:05.323Z,37.3
2016-12-26T06:38:05.374Z,37.3
2016-12-26T06:40:05.591Z,37.3
2016-12-26T06:42:07.854Z,37.2
2016-12-26T06:44:08.200Z,37.2
2016-12-26T06:46:05.988Z,37.2
2016-12-26T06:48:05.856Z,37.2
2016-12-26T06:50:05.682Z,37.2
2016-12-26T06:52:05.400Z,37.2
2016-12-26T06:54:05.091Z,37.2
2016-12-26T06:56:08.707Z,37.2
2016-12-26T06:58:05.504Z,37.2
2016-12-26T07:00:05.723Z,37.3
2016-12-26T07:02:10.887Z,37.2
2016-12-26T07:04:05.939Z,37.2
2016-12-26T07:06:05.669Z,37.2
2016-12-26T07:08:08.631Z,37.2
2016-12-26T07:10:10.380Z,37.2
2016-12-26T07:12:05.159Z,37.2
2016-12-26T07:14:06.355Z,37.2
2016-12-26T07:16:05.630Z,37.2
2016-12-26T07:18:05.533Z,37.2
2016-12-26T07:20:08.760Z,37.2
2016-12-26T07:22:05.970Z,37.2
2016-12-26T07:24:05.684Z,37.2
2016-12-26T07:26:08.323Z,37.3
2016-12-26T07:28:05.115Z,37.2
2016-12-26T07:30:08.335Z,37.3
2016-12-26T07:32:05.070Z,37.2
2016-12-26T07:34:05.756Z,37.2
2016-12-26T07:36:05.587Z,37.2
2016-12-26T07:38:06.003Z,37.2
2016-12-26T07:40:10.898Z,37.2
2016-12-26T07:42:05.570Z,37.2
2016-12-26T07:44:08.656Z,37.2
2016-12-26T07:46:05.342Z,37.2
2016-12-26T07:48:05.262Z,37.2
2016-12-26T07:50:05.986Z,37.2
2016-12-26T07:52:06.275Z,37.2
2016-12-26T07:54:06.189Z,37.2
2016-12-26T07:56:06.288Z,37.2
2016-12-26T07:58:08.168Z,37.2
2016-12-26T08:00:08.398Z,37.2
2016-12-26T08:02:07.788Z,37.3
2016-12-26T08:04:05.483Z,37.3
2016-12-26T08:06:05.233Z,37.2
2016-12-26T08:08:06.128Z,37.2
2016-12-26T08:10:05.858Z,37.2
2016-12-26T08:12:08.177Z,37.2
2016-12-26T08:14:06.646Z,37.2
2016-12-26T08:16:07.913Z,37.2
2016-12-26T08:18:08.334Z,37.2
2016-12-26T08:20:05.262Z,37.2
2016-12-26T08:22:08.550Z,37.2
2016-12-26T08:24:07.887Z,37.2
2016-12-26T08:26:05.958Z,37.2
2016-12-26T08:28:05.695Z,37.2
2016-12-26T08:30:05.404Z,37.2
2016-12-26T08:32:05.249Z,37.2
2016-12-26T08:34:05.978Z,37.2
2016-12-26T08:36:05.770Z,37.2
2016-12-26T08:38:06.124Z,37.2
2016-12-26T08:40:05.711Z,37.2
2016-12-26T08:42:08.475Z,37.2
2016-12-26T08:44:08.258Z,37.2
2016-12-26T08:46:08.492Z,37.2
2016-12-26T08:48:05.291Z,37.2
2016-12-26T08:50:05.156Z,37.2
2016-12-26T08:52:13.502Z,37.2
2016-12-26T08:54:05.323Z,37.2
2016-12-26T08:56:05.463Z,37.2
2016-12-26T08:58:06.011Z,37.2
2016-12-26T09:00:08.279Z,37.3
2016-12-26T09:02:05.452Z,37.3
2016-12-26T09:04:05.200Z,37.2
2016-12-26T09:06:05.963Z,37.3
2016-12-26T09:08:06.051Z,37.2
2016-12-26T09:10:05.771Z,37.2
2016-12-26T09:12:08.444Z,37.2
2016-12-26T09:14:05.524Z,37.2
2016-12-26T09:16:05.240Z,37.3
2016-12-26T09:18:05.276Z,37.2
2016-12-26T09:20:08.872Z,37.4
2016-12-26T09:22:05.531Z,37.4
2016-12-26T09:24:05.734Z,37.6
2016-12-26T09:26:05.429Z,37.6
2016-12-26T09:28:08.241Z,38
2016-12-26T09:30:08.509Z,38.1
2016-12-26T09:32:06.385Z,38.1
2016-12-26T09:34:07.874Z,38.3
2016-12-26T09:36:05.734Z,38.1
2016-12-26T09:38:08.056Z,38.4
2016-12-26T09:40:05.835Z,38.2
2016-12-26T09:42:05.574Z,38.8
2016-12-26T09:44:05.393Z,38.2
2016-12-26T09:46:07.661Z,38.2
2016-12-26T09:48:05.450Z,38.2
2016-12-26T09:50:05.851Z,38.2
2016-12-26T09:52:05.517Z,38.1
2016-12-26T09:54:05.208Z,38.1
2016-12-26T09:56:10.505Z,38.1
2016-12-26T09:58:05.222Z,38.2
2016-12-26T10:00:06.009Z,38.5
2016-12-26T10:02:06.082Z,38.6
2016-12-26T10:04:05.313Z,39.8
2016-12-26T10:06:05.609Z,39.5
2016-12-26T10:08:05.470Z,39.6
2016-12-26T10:10:05.158Z,39.7
2016-12-26T10:12:05.925Z,39.7
2016-12-26T10:14:05.221Z,39.7
2016-12-26T10:16:06.341Z,39.8
2016-12-26T10:18:07.794Z,39.5
2016-12-26T10:20:05.563Z,39.5
2016-12-26T10:22:05.886Z,39.5
2016-12-26T10:24:10.724Z,39.4
2016-12-26T10:26:06.190Z,39.4
2016-12-26T10:28:05.932Z,39.4
2016-12-26T10:30:05.625Z,39.4
2016-12-26T10:32:05.976Z,39.2
2016-12-26T10:34:05.681Z,39.4
2016-12-26T10:36:05.919Z,39.4
2016-12-26T10:38:06.310Z,39.2
2016-12-26T10:40:05.045Z,39.4
2016-12-26T10:42:08.539Z,39.9
2016-12-26T10:44:10.105Z,39.9
2016-12-26T10:46:06.191Z,39.8
2016-12-26T10:48:19.099Z,39.8
2016-12-26T10:50:06.901Z,39.6
2016-12-26T10:52:05.131Z,39.7
2016-12-26T10:54:05.514Z,39.4
2016-12-26T10:56:08.590Z,39.3
2016-12-26T10:58:07.686Z,39.3
2016-12-26T11:00:05.607Z,39.5
2016-12-26T11:02:10.104Z,39.2
2016-12-26T11:04:22.163Z,39.5
2016-12-26T11:06:08.421Z,39.2
2016-12-26T11:08:05.317Z,39.4
2016-12-26T11:10:07.521Z,39.2
2016-12-26T11:12:05.596Z,39.2
2016-12-26T11:14:10.793Z,39.2
2016-12-26T11:16:05.667Z,39.2
2016-12-26T11:18:05.826Z,39.1
2016-12-26T11:20:05.749Z,39.4
2016-12-26T11:22:05.445Z,39.2
2016-12-26T11:24:05.361Z,39.1
2016-12-26T11:26:05.977Z,39
2016-12-26T11:28:05.222Z,39.1
2016-12-26T11:30:06.159Z,39
2016-12-26T11:32:09.411Z,39
2016-12-26T11:34:07.314Z,39.2
2016-12-26T11:36:05.557Z,39.2
2016-12-26T11:38:06.114Z,39
2016-12-26T11:40:05.906Z,39.1
2016-12-26T11:42:05.839Z,39.1
2016-12-26T11:44:06.112Z,39.1
2016-12-26T11:46:05.357Z,39.1
2016-12-26T11:48:05.248Z,39.1
2016-12-26T11:50:08.817Z,39
2016-12-26T11:52:05.239Z,38.8
2016-12-26T11:54:08.102Z,39
2016-12-26T11:56:05.883Z,39
2016-12-26T11:58:05.102Z,38.9
2016-12-26T12:00:05.831Z,38.9
2016-12-26T12:02:05.704Z,38.9
2016-12-26T12:04:06.075Z,38.9
2016-12-26T12:06:05.032Z,38.8
2016-12-26T12:08:05.911Z,38.8
2016-12-26T12:10:05.119Z,38.8
2016-12-26T12:12:05.049Z,38.8
2016-12-26T12:14:06.107Z,38.8
2016-12-26T12:16:05.863Z,38.8
2016-12-26T12:18:05.750Z,38.8
2016-12-26T12:20:08.752Z,38.8
2016-12-26T12:22:05.511Z,38.8
2016-12-26T12:24:08.100Z,38.8
2016-12-26T12:26:08.547Z,38.7
2016-12-26T12:28:05.309Z,38.7
2016-12-26T12:30:05.008Z,38.7
2016-12-26T12:32:05.623Z,38.7
2016-12-26T12:34:05.318Z,38.6
2016-12-26T12:36:05.552Z,38.6
2016-12-26T12:38:07.942Z,38.6
2016-12-26T12:40:06.042Z,38.6
2016-12-26T12:42:05.726Z,38.6
2016-12-26T12:44:07.960Z,38.6
2016-12-26T12:46:08.209Z,38.6
2016-12-26T12:48:05.867Z,38.6
2016-12-26T12:50:05.597Z,38.6
2016-12-26T12:52:05.326Z,38.6
2016-12-26T12:54:05.123Z,38.6
2016-12-26T12:56:08.757Z,38.6
2016-12-26T12:58:05.507Z,38.6
2016-12-26T13:00:05.252Z,38.6
2016-12-26T13:02:08.573Z,38.6
2016-12-26T13:04:05.275Z,38.6
2016-12-26T13:06:05.508Z,38.6
2016-12-26T13:08:05.996Z,38.6
2016-12-26T13:10:05.250Z,38.6
2016-12-26T13:12:06.045Z,38.6
2016-12-26T13:14:06.021Z,38.6
2016-12-26T13:16:05.739Z,38.6
2016-12-26T13:18:05.295Z,38.6
2016-12-26T13:20:06.189Z,38.8
2016-12-26T13:22:05.410Z,38.5
2016-12-26T13:24:05.160Z,38.5
2016-12-26T13:26:05.534Z,38.8
2016-12-26T13:28:05.526Z,38.7
2016-12-26T13:30:05.519Z,38.7
2016-12-26T13:32:05.395Z,38.5
2016-12-26T13:34:05.094Z,38.4
2016-12-26T13:36:05.771Z,38.4
2016-12-26T13:38:05.877Z,38.4
2016-12-26T13:40:05.217Z,38.6
2016-12-26T13:42:06.032Z,38.7
2016-12-26T13:44:08.727Z,38.6
2016-12-26T13:46:10.541Z,38.4
2016-12-26T13:48:05.260Z,38.4
2016-12-26T13:50:06.000Z,38.6
2016-12-26T13:52:05.763Z,38.4
2016-12-26T13:54:05.458Z,38.4
2016-12-26T13:56:05.716Z,38.4
2016-12-26T13:58:05.377Z,38.5
2016-12-26T14:00:05.306Z,38.5
2016-12-26T14:02:07.897Z,38.5
2016-12-26T14:04:05.614Z,38.7
2016-12-26T14:06:05.381Z,38.4
2016-12-26T14:08:07.765Z,38.4
2016-12-26T14:10:05.529Z,38.4
2016-12-26T14:12:05.407Z,38.4
2016-12-26T14:14:06.028Z,38.4
2016-12-26T14:16:06.205Z,38.4
2016-12-26T14:18:05.115Z,38.6
2016-12-26T14:20:05.964Z,38.4
2016-12-26T14:22:05.719Z,38.4
2016-12-26T14:24:05.542Z,38.6
2016-12-26T14:26:05.311Z,38.4
2016-12-26T14:28:05.552Z,38.4
2016-12-26T14:30:07.840Z,38.4
2016-12-26T14:32:05.695Z,38.4
2016-12-26T14:34:05.371Z,38.4
2016-12-26T14:36:08.130Z,38.4
2016-12-26T14:38:05.940Z,38.4
2016-12-26T14:40:05.636Z,38.7
2016-12-26T14:42:07.877Z,38.4
2016-12-26T14:44:08.337Z,38.4
2016-12-26T14:46:10.148Z,38.4
2016-12-26T14:48:06.621Z,38.4
2016-12-26T14:50:07.990Z,38.4
2016-12-26T14:52:13.305Z,38.4
2016-12-26T14:54:05.037Z,38.4
2016-12-26T14:56:10.801Z,38.4
2016-12-26T14:58:05.550Z,38.4
2016-12-26T15:00:05.219Z,38.3
2016-12-26T15:02:06.326Z,38.8
2016-12-26T15:04:05.173Z,38.4
2016-12-26T15:06:05.860Z,38.4
2016-12-26T15:08:05.172Z,38.3
2016-12-26T15:10:08.443Z,38.3
2016-12-26T15:12:05.222Z,38.3
2016-12-26T15:14:12.764Z,38.3
2016-12-26T15:16:05.470Z,38.3
2016-12-26T15:18:05.416Z,38.3
2016-12-26T15:20:05.401Z,38.3
2016-12-26T15:22:05.689Z,38.4
2016-12-26T15:24:05.423Z,38.3
2016-12-26T15:26:05.225Z,38.3
2016-12-26T15:28:05.929Z,38.4
2016-12-26T15:30:05.743Z,38.2
2016-12-26T15:32:06.224Z,38.5
2016-12-26T15:34:05.944Z,38.6
2016-12-26T15:36:05.662Z,38.7
2016-12-26T15:38:05.369Z,38.8
2016-12-26T15:40:05.129Z,38.7
2016-12-26T15:42:08.411Z,38.8
2016-12-26T15:44:05.155Z,38.8
2016-12-26T15:46:06.898Z,38.8
2016-12-26T15:48:08.183Z,39.1
2016-12-26T15:50:06.278Z,38.8
2016-12-26T15:52:06.157Z,38.8
2016-12-26T15:54:05.866Z,38.8
2016-12-26T15:56:05.662Z,39.1
2016-12-26T15:58:05.387Z,38.8
2016-12-26T16:00:05.067Z,39.1
2016-12-26T16:02:05.333Z,39
2016-12-26T16:04:05.035Z,38.8
2016-12-26T16:06:05.283Z,38.8
2016-12-26T16:08:05.434Z,38.7
2016-12-26T16:10:05.199Z,38.7
2016-12-26T16:12:10.507Z,38.6
2016-12-26T16:14:05.556Z,38.4
2016-12-26T16:16:05.832Z,38.4
2016-12-26T16:18:05.351Z,38.4
2016-12-26T16:20:05.662Z,38.4
2016-12-26T16:22:05.438Z,38.3
2016-12-26T16:24:10.514Z,38.3
2016-12-26T16:26:05.355Z,38.3
2016-12-26T16:28:05.062Z,38.3
2016-12-26T16:30:05.770Z,38.4
2016-12-26T16:32:05.770Z,38.3
2016-12-26T16:34:05.461Z,38.3
2016-12-26T16:36:05.156Z,38.3
2016-12-26T16:38:08.812Z,38.3
2016-12-26T16:40:05.529Z,38.3
2016-12-26T16:42:05.219Z,38.3
2016-12-26T16:44:05.767Z,38.3
2016-12-26T16:46:05.457Z,38.3
2016-12-26T16:48:08.285Z,38.3
2016-12-26T16:50:05.524Z,38.3
2016-12-26T16:52:05.275Z,38.3
2016-12-26T16:54:06.005Z,38.3
2016-12-26T16:56:05.423Z,38.3
2016-12-26T16:58:07.657Z,38
2016-12-26T17:00:10.483Z,38.3
2016-12-26T17:02:05.273Z,38.3
2016-12-26T17:04:05.957Z,38.3
2016-12-26T17:06:13.228Z,38.1
2016-12-26T17:08:06.252Z,38.3
2016-12-26T17:10:05.961Z,38.3
2016-12-26T17:12:05.791Z,38.3
2016-12-26T17:14:05.680Z,38.3
2016-12-26T17:16:05.495Z,38.1
2016-12-26T17:18:05.371Z,38.3
2016-12-26T17:20:05.137Z,38.4
2016-12-26T17:22:07.965Z,38.3
2016-12-26T17:24:05.650Z,38.3
2016-12-26T17:26:07.886Z,38.3
2016-12-26T17:28:10.831Z,38.1
2016-12-26T17:30:05.513Z,38.3
2016-12-26T17:32:05.412Z,38.3
2016-12-26T17:34:05.169Z,38.1
2016-12-26T17:36:05.886Z,38.1
2016-12-26T17:38:05.620Z,38.4
2016-12-26T17:40:05.379Z,38.3
2016-12-26T17:42:05.589Z,38.3
2016-12-26T17:44:08.409Z,38.3
2016-12-26T17:46:07.734Z,38.3
2016-12-26T17:48:05.482Z,38.3
2016-12-26T17:50:06.032Z,38.3
2016-12-26T17:52:05.726Z,38.1
2016-12-26T17:54:05.924Z,38.3
2016-12-26T17:56:05.541Z,38.1
2016-12-26T17:58:06.011Z,38.3
2016-12-26T18:00:08.382Z,38.3
2016-12-26T18:02:07.737Z,38.5
2016-12-26T18:04:05.421Z,38.4
2016-12-26T18:06:05.121Z,38.5
2016-12-26T18:08:06.204Z,38.5
2016-12-26T18:10:05.945Z,38.5
2016-12-26T18:12:05.690Z,38.5
2016-12-26T18:14:05.761Z,38.8
2016-12-26T18:16:05.593Z,38.8
2016-12-26T18:18:05.778Z,39.3
2016-12-26T18:20:05.858Z,39.9
2016-12-26T18:22:08.177Z,39.9
2016-12-26T18:24:05.908Z,40.1
2016-12-26T18:26:15.702Z,40.3
2016-12-26T18:28:05.614Z,40.3
2016-12-26T18:30:08.395Z,41.5
2016-12-26T18:32:05.463Z,41.5
2016-12-26T18:34:05.187Z,41.9
2016-12-26T18:36:05.962Z,41.9
2016-12-26T18:38:05.981Z,41.7
2016-12-26T18:40:05.648Z,41.9
2016-12-26T18:42:05.891Z,42
2016-12-26T18:44:08.380Z,41.8
2016-12-26T18:46:05.044Z,41.8
2016-12-26T18:48:05.832Z,42.2
2016-12-26T18:50:05.999Z,42
2016-12-26T18:52:05.293Z,42.3
2016-12-26T18:54:11.125Z,43.3
2016-12-26T18:56:06.163Z,43.5
2016-12-26T18:58:05.916Z,43.9
2016-12-26T19:00:05.624Z,43.8
2016-12-26T19:02:05.718Z,43.4
2016-12-26T19:04:10.504Z,43.3
2016-12-26T19:06:07.747Z,43.3
2016-12-26T19:08:05.197Z,43.3
2016-12-26T19:10:05.534Z,43.3
2016-12-26T19:12:13.441Z,43.1
2016-12-26T19:14:08.435Z,43
2016-12-26T19:16:05.284Z,43
2016-12-26T19:18:07.707Z,42.8
2016-12-26T19:20:08.082Z,42.7
2016-12-26T19:22:08.281Z,42.6
2016-12-26T19:24:06.027Z,42.6
2016-12-26T19:26:06.153Z,42.6
2016-12-26T19:28:05.822Z,42.5
2016-12-26T19:30:05.829Z,42.3
2016-12-26T19:32:06.000Z,42.2
2016-12-26T19:34:05.776Z,42.2
2016-12-26T19:36:05.727Z,42
2016-12-26T19:38:05.865Z,41.9
2016-12-26T19:40:05.621Z,41.8
2016-12-26T19:42:05.362Z,41.7
2016-12-26T19:44:05.225Z,41.6
2016-12-26T19:46:06.003Z,41.5
2016-12-26T19:48:07.873Z,41.4
2016-12-26T19:50:08.373Z,41.3
2016-12-26T19:52:05.756Z,41.3
2016-12-26T19:54:05.478Z,41.2
2016-12-26T19:56:05.935Z,41.2
2016-12-26T19:58:05.678Z,41.1
2016-12-26T20:00:08.349Z,41
2016-12-26T20:02:05.772Z,41
2016-12-26T20:04:05.611Z,41
2016-12-26T20:06:05.668Z,41
2016-12-26T20:08:08.416Z,40.8
2016-12-26T20:10:05.135Z,40.8
2016-12-26T20:12:10.932Z,40.7
2016-12-26T20:14:05.923Z,40.7
2016-12-26T20:16:05.792Z,40.7
2016-12-26T20:18:06.735Z,40.9
2016-12-26T20:20:05.616Z,40.7
2016-12-26T20:22:05.423Z,40.8
2016-12-26T20:24:05.345Z,40.5
2016-12-26T20:26:08.179Z,40.4
2016-12-26T20:28:07.987Z,40.5
2016-12-26T20:30:07.753Z,40.4
2016-12-26T20:32:10.852Z,40.5
2016-12-26T20:34:05.692Z,40.5
2016-12-26T20:36:08.064Z,40.4
2016-12-26T20:38:10.782Z,40.4
2016-12-26T20:40:05.719Z,40.3
2016-12-26T20:42:06.020Z,40.2
2016-12-26T20:44:06.167Z,40.2
2016-12-26T20:46:05.376Z,40.2
2016-12-26T20:48:05.629Z,40.1
2016-12-26T20:50:05.892Z,40.1
2016-12-26T20:52:05.589Z,40.1
2016-12-26T20:54:05.425Z,40.1
2016-12-26T20:56:05.516Z,40
2016-12-26T20:58:05.224Z,40
2016-12-26T21:00:10.960Z,39.9
2016-12-26T21:02:06.083Z,39.9
2016-12-26T21:04:05.380Z,39.9
2016-12-26T21:06:05.625Z,39.9
2016-12-26T21:08:08.182Z,39.8
2016-12-26T21:10:05.841Z,39.8
2016-12-26T21:12:05.664Z,39.8
2016-12-26T21:14:05.622Z,39.7
2016-12-26T21:16:05.352Z,39.7
2016-12-26T21:18:05.851Z,39.7
2016-12-26T21:20:08.520Z,39.7
2016-12-26T21:22:05.292Z,39.7
2016-12-26T21:24:05.175Z,39.7
2016-12-26T21:26:11.335Z,39.6
2016-12-26T21:28:10.345Z,39.5
2016-12-26T21:30:05.031Z,39.5
2016-12-26T21:32:06.032Z,39.3
2016-12-26T21:34:05.710Z,39.3
2016-12-26T21:36:05.426Z,39.4
2016-12-26T21:38:05.494Z,39.3
2016-12-26T21:40:05.170Z,39.3
2016-12-26T21:42:05.969Z,39.3
2016-12-26T21:44:05.907Z,39.3
2016-12-26T21:46:05.633Z,39.3
2016-12-26T21:48:05.324Z,39.3
2016-12-26T21:50:05.629Z,39.3
2016-12-26T21:52:05.433Z,39.3
2016-12-26T21:54:05.230Z,39.3
2016-12-26T21:56:11.081Z,39.3
2016-12-26T21:58:06.038Z,39.3
2016-12-26T22:00:05.793Z,39.2
2016-12-26T22:02:05.906Z,39
2016-12-26T22:04:05.316Z,39.2
2016-12-26T22:06:05.294Z,39.3
2016-12-26T22:08:05.430Z,39.2
2016-12-26T22:10:05.201Z,39.2
2016-12-26T22:12:06.014Z,39.2
2016-12-26T22:14:06.025Z,39
2016-12-26T22:16:05.480Z,38.9
2016-12-26T22:18:05.370Z,38.9
2016-12-26T22:20:05.177Z,39.1
2016-12-26T22:22:08.459Z,38.8
2016-12-26T22:24:05.239Z,38.8
2016-12-26T22:26:06.149Z,38.8
2016-12-26T22:28:05.881Z,39
2016-12-26T22:30:05.700Z,38.8
2016-12-26T22:32:10.608Z,38.8
2016-12-26T22:34:05.842Z,39
2016-12-26T22:36:05.527Z,39
2016-12-26T22:38:05.296Z,38.8
2016-12-26T22:40:05.978Z,39
2016-12-26T22:42:05.692Z,39
2016-12-26T22:44:08.098Z,39
2016-12-26T22:46:05.803Z,39
2016-12-26T22:48:05.721Z,38.7
2016-12-26T22:50:05.781Z,39
2016-12-26T22:52:05.473Z,38.7
2016-12-26T22:54:08.687Z,38.9
2016-12-26T22:56:05.546Z,38.9
2016-12-26T22:58:07.747Z,38.9
2016-12-26T23:00:05.464Z,38.9
2016-12-26T23:02:13.299Z,38.9
2016-12-26T23:04:06.180Z,38.9
2016-12-26T23:06:05.930Z,38.9
2016-12-26T23:08:05.666Z,38.9
2016-12-26T23:10:05.427Z,38.8
2016-12-26T23:12:05.234Z,38.8
2016-12-26T23:14:06.042Z,38.8
2016-12-26T23:16:05.704Z,38.8
2016-12-26T23:18:05.602Z,38.8
2016-12-26T23:20:05.690Z,38.8
2016-12-26T23:22:05.369Z,38.8
2016-12-26T23:24:05.600Z,38.8
2016-12-26T23:26:05.461Z,38.8
2016-12-26T23:28:05.697Z,38.7
2016-12-26T23:30:05.433Z,38.7
2016-12-26T23:32:05.181Z,38.7
2016-12-26T23:34:05.895Z,38.7
2016-12-26T23:36:08.156Z,38.9
2016-12-26T23:38:06.074Z,38.6
2016-12-26T23:40:05.297Z,38.7
2016-12-26T23:42:08.124Z,38.7
2016-12-26T23:44:05.858Z,38.7
2016-12-26T23:46:05.094Z,38.6
2016-12-26T23:48:05.790Z,38.7
2016-12-26T23:50:05.526Z,38.7
2016-12-26T23:52:13.336Z,38.8
2016-12-26T23:54:05.067Z,38.6
2016-12-26T23:56:05.914Z,38.6
2016-12-26T23:58:05.308Z,38.6
